createdAt,value
2018-05-31T00:01:39.285Z,96745.67
2018-05-31T00:04:05.167Z,96752.13
2018-05-31T00:06:31.090Z,96756.22
2018-05-31T00:08:56.944Z,96758.31
2018-05-31T00:11:22.804Z,96752.72
2018-05-31T00:13:48.692Z,96758.51
2018-05-31T00:16:14.581Z,96763.36
2018-05-31T00:18:40.465Z,96770.01
2018-05-31T00:21:06.335Z,96766.70
2018-05-31T00:23:32.196Z,96766.67
2018-05-31T00:25:58.085Z,96766.50
2018-05-31T00:28:23.981Z,96769.15
2018-05-31T00:30:49.850Z,96767.38
2018-05-31T00:33:15.709Z,96760.23
2018-05-31T00:35:41.583Z,96750.23
2018-05-31T00:38:07.437Z,96744.02
2018-05-31T00:40:33.274Z,96746.94
2018-05-31T00:42:59.184Z,96740.36
2018-05-31T00:45:25.027Z,96734.25
2018-05-31T00:47:50.885Z,96726.08
2018-05-31T00:50:16.796Z,96723.91
2018-05-31T00:52:42.687Z,96722.33
2018-05-31T00:55:08.574Z,96734.15
2018-05-31T00:57:34.397Z,96738.41
2018-05-31T01:00:00.263Z,96738.81
2018-05-31T01:02:26.134Z,96743.08
2018-05-31T01:04:52.009Z,96736.38
2018-05-31T01:07:17.916Z,96729.70
2018-05-31T01:09:43.780Z,96719.47
2018-05-31T01:12:09.633Z,96723.61
2018-05-31T01:14:35.492Z,96724.41
2018-05-31T01:17:01.368Z,96725.00
2018-05-31T01:19:27.240Z,96721.86
2018-05-31T01:21:53.094Z,96720.41
2018-05-31T01:24:18.926Z,96735.78
2018-05-31T01:26:44.808Z,96727.39
2018-05-31T01:29:10.681Z,96739.55
2018-05-31T01:31:36.554Z,96732.46
2018-05-31T01:34:02.413Z,96729.05
2018-05-31T01:36:28.258Z,96732.59
2018-05-31T01:38:54.137Z,96732.95
2018-05-31T01:41:20.043Z,96725.86
2018-05-31T01:43:45.950Z,96731.36
2018-05-31T01:46:11.829Z,96722.34
2018-05-31T01:48:37.700Z,96714.67
2018-05-31T01:51:03.621Z,96715.11
2018-05-31T01:53:29.481Z,96718.44
2018-05-31T01:55:55.329Z,96714.58
2018-05-31T01:58:21.200Z,96721.92
2018-05-31T02:00:47.111Z,96719.64
2018-05-31T02:03:12.989Z,96711.69
2018-05-31T02:05:38.845Z,96707.30
2018-05-31T02:08:04.784Z,96703.37
2018-05-31T02:10:30.650Z,96702.52
2018-05-31T02:12:56.514Z,96698.91
2018-05-31T02:15:22.368Z,96692.80
2018-05-31T02:17:48.261Z,96695.72
2018-05-31T02:20:14.138Z,96687.88
2018-05-31T02:22:40.023Z,96681.30
2018-05-31T02:25:05.875Z,96678.47
2018-05-31T02:27:31.722Z,96683.28
2018-05-31T02:29:57.614Z,96677.22
2018-05-31T02:32:23.481Z,96675.56
2018-05-31T02:34:49.343Z,96679.13
2018-05-31T02:37:15.200Z,96674.98
2018-05-31T02:39:41.071Z,96675.53
2018-05-31T02:42:06.908Z,96675.48
2018-05-31T02:44:32.804Z,96681.16
2018-05-31T02:46:58.684Z,96677.30
2018-05-31T02:49:24.557Z,96681.70
2018-05-31T02:51:50.442Z,96671.41
2018-05-31T02:54:16.335Z,96671.53
2018-05-31T02:56:42.210Z,96670.16
2018-05-31T02:59:08.054Z,96665.41
2018-05-31T03:01:33.932Z,96667.61
2018-05-31T03:03:59.781Z,96664.45
2018-05-31T03:06:25.663Z,96662.30
2018-05-31T03:08:51.533Z,96673.38
2018-05-31T03:11:17.417Z,96677.95
2018-05-31T03:13:43.269Z,96675.24
2018-05-31T03:16:09.122Z,96684.09
2018-05-31T03:18:34.956Z,96679.22
2018-05-31T03:21:00.818Z,96688.47
2018-05-31T03:23:26.699Z,96684.25
2018-05-31T03:25:52.563Z,96683.86
2018-05-31T03:28:18.400Z,96683.98
2018-05-31T03:30:44.236Z,96689.80
2018-05-31T03:33:10.112Z,96687.09
2018-05-31T03:35:35.944Z,96694.55
2018-05-31T03:38:01.789Z,96689.62
2018-05-31T03:40:27.656Z,96695.75
2018-05-31T03:42:53.545Z,96690.80
2018-05-31T03:45:19.398Z,96694.56
2018-05-31T03:47:45.241Z,96687.96
2018-05-31T03:50:11.156Z,96680.05
2018-05-31T03:52:36.989Z,96690.22
2018-05-31T03:55:02.853Z,96697.09
2018-05-31T03:57:28.732Z,96688.02
2018-05-31T03:59:54.613Z,96693.69
2018-05-31T04:02:20.580Z,96693.75
2018-05-31T04:04:46.470Z,96695.05
2018-05-31T04:07:12.340Z,96695.22
2018-05-31T04:09:38.197Z,96697.91
2018-05-31T04:12:04.109Z,96698.77
2018-05-31T04:14:29.972Z,96699.25
2018-05-31T04:16:55.847Z,96697.08
2018-05-31T04:19:21.712Z,96697.86
2018-05-31T04:21:47.595Z,96700.62
2018-05-31T04:24:13.463Z,96699.58
2018-05-31T04:26:39.327Z,96708.36
2018-05-31T04:29:05.195Z,96708.92
2018-05-31T04:31:31.079Z,96715.28
2018-05-31T04:33:56.933Z,96719.84
2018-05-31T04:36:22.817Z,96721.67
2018-05-31T04:38:48.688Z,96719.66
2018-05-31T04:41:14.622Z,96724.81
2018-05-31T04:43:40.482Z,96728.78
2018-05-31T04:46:06.332Z,96736.03
2018-05-31T04:48:32.212Z,96749.81
2018-05-31T04:50:58.061Z,96738.07
2018-05-31T04:53:23.921Z,96738.98
2018-05-31T04:55:49.762Z,96735.36
2018-05-31T04:58:15.602Z,96741.80
2018-05-31T05:00:41.460Z,96739.19
2018-05-31T05:03:07.433Z,96738.92
2018-05-31T05:05:33.305Z,96743.41
2018-05-31T05:07:59.154Z,96738.42
2018-05-31T05:10:25.042Z,96745.05
2018-05-31T05:12:50.897Z,96746.19
2018-05-31T05:15:16.760Z,96746.15
2018-05-31T05:17:42.621Z,96749.40
2018-05-31T05:20:08.500Z,96754.64
2018-05-31T05:22:34.398Z,96751.19
2018-05-31T05:25:00.265Z,96751.63
2018-05-31T05:27:26.154Z,96754.69
2018-05-31T05:29:52.017Z,96762.42
2018-05-31T05:32:17.884Z,96753.09
2018-05-31T05:34:43.769Z,96759.03
2018-05-31T05:37:09.685Z,96762.13
2018-05-31T05:39:35.549Z,96772.33
2018-05-31T05:42:01.425Z,96769.97
2018-05-31T05:44:27.289Z,96769.03
2018-05-31T05:46:53.152Z,96769.80
2018-05-31T05:49:19.026Z,96762.15
2018-05-31T05:51:44.894Z,96761.59
2018-05-31T05:54:10.754Z,96759.30
2018-05-31T05:56:36.599Z,96765.84
2018-05-31T05:59:02.501Z,96766.34
2018-05-31T06:01:30.879Z,96767.30
2018-05-31T06:03:56.711Z,96770.03
2018-05-31T06:06:22.587Z,96775.80
2018-05-31T06:08:48.493Z,96769.83
2018-05-31T06:11:14.342Z,96773.59
2018-05-31T06:13:40.233Z,96769.49
2018-05-31T06:16:06.129Z,96766.08
2018-05-31T06:18:32.013Z,96777.11
2018-05-31T06:20:57.853Z,96777.45
2018-05-31T06:23:23.744Z,96776.45
2018-05-31T06:25:49.626Z,96775.66
2018-05-31T06:28:15.517Z,96775.84
2018-05-31T06:30:41.386Z,96781.58
2018-05-31T06:33:07.213Z,96781.50
2018-05-31T06:35:33.110Z,96777.98
2018-05-31T06:37:58.952Z,96776.20
2018-05-31T06:40:24.791Z,96772.30
2018-05-31T06:42:50.651Z,96778.31
2018-05-31T06:45:16.521Z,96776.28
2018-05-31T06:47:42.373Z,96777.71
2018-05-31T06:50:08.249Z,96774.57
2018-05-31T06:52:34.111Z,96773.78
2018-05-31T06:54:59.939Z,96779.16
2018-05-31T06:57:25.788Z,96784.30
2018-05-31T06:59:51.649Z,96780.41
2018-05-31T07:02:17.509Z,96781.11
2018-05-31T07:04:43.348Z,96784.31
2018-05-31T07:07:09.209Z,96783.39
2018-05-31T07:09:35.057Z,96778.38
2018-05-31T07:12:00.906Z,96782.72
2018-05-31T07:14:26.798Z,96776.00
2018-05-31T07:16:52.625Z,96771.66
2018-05-31T07:19:18.488Z,96777.52
2018-05-31T07:21:44.397Z,96778.75
2018-05-31T07:24:10.220Z,96783.35
2018-05-31T07:26:36.089Z,96777.12
2018-05-31T07:29:01.964Z,96784.76
2018-05-31T07:31:27.838Z,96786.11
2018-05-31T07:33:53.718Z,96787.09
2018-05-31T07:36:19.600Z,96783.52
2018-05-31T07:38:45.463Z,96784.80
2018-05-31T07:41:11.341Z,96786.91
2018-05-31T07:43:37.213Z,96787.61
2018-05-31T07:46:03.087Z,96782.73
2018-05-31T07:48:28.949Z,96791.64
2018-05-31T07:50:54.805Z,96790.16
2018-05-31T07:53:20.653Z,96792.66
2018-05-31T07:55:46.541Z,96799.64
2018-05-31T07:58:12.493Z,96796.59
2018-05-31T08:00:38.325Z,96791.11
2018-05-31T08:03:04.179Z,96792.36
2018-05-31T08:05:30.029Z,96797.03
2018-05-31T08:07:55.916Z,96790.39
2018-05-31T08:10:21.770Z,96788.18
2018-05-31T08:12:47.638Z,96784.75
2018-05-31T08:15:13.583Z,96794.80
2018-05-31T08:17:39.425Z,96799.93
2018-05-31T08:20:05.312Z,96794.43
2018-05-31T08:22:31.177Z,96798.61
2018-05-31T08:24:57.042Z,96798.81
2018-05-31T08:27:22.894Z,96803.29
2018-05-31T08:29:48.770Z,96803.45
2018-05-31T08:32:14.631Z,96800.28
2018-05-31T08:34:40.498Z,96802.02
2018-05-31T08:37:06.368Z,96801.55
2018-05-31T08:39:32.241Z,96812.27
2018-05-31T08:41:58.121Z,96808.70
2018-05-31T08:44:23.960Z,96802.25
2018-05-31T08:46:49.861Z,96801.20
2018-05-31T08:49:15.730Z,96801.01
2018-05-31T08:51:41.604Z,96803.27
2018-05-31T08:54:07.466Z,96803.33
2018-05-31T08:56:33.357Z,96796.07
2018-05-31T08:58:59.256Z,96791.49
2018-05-31T09:01:25.253Z,96793.64
2018-05-31T09:03:51.098Z,96794.81
2018-05-31T09:06:16.976Z,96796.28
2018-05-31T09:08:42.865Z,96794.55
2018-05-31T09:11:08.726Z,96796.40
2018-05-31T09:13:34.586Z,96794.17
2018-05-31T09:16:00.468Z,96795.76
2018-05-31T09:18:26.366Z,96785.07
2018-05-31T09:20:52.245Z,96785.56
2018-05-31T09:23:18.150Z,96783.17
2018-05-31T09:25:44.022Z,96786.80
2018-05-31T09:28:09.916Z,96782.13
2018-05-31T09:30:35.805Z,96780.57
2018-05-31T09:33:01.678Z,96784.80
2018-05-31T09:35:27.557Z,96781.42
2018-05-31T09:37:53.447Z,96780.72
2018-05-31T09:40:19.309Z,96772.56
2018-05-31T09:42:45.165Z,96777.33
2018-05-31T09:45:11.056Z,96777.75
2018-05-31T09:47:36.946Z,96772.22
2018-05-31T09:50:02.840Z,96770.87
2018-05-31T09:52:28.745Z,96770.15
2018-05-31T09:54:54.651Z,96770.31
2018-05-31T09:57:20.545Z,96760.00
2018-05-31T09:59:46.418Z,96757.38
2018-05-31T10:02:12.381Z,96759.97
2018-05-31T10:04:38.254Z,96756.17
2018-05-31T10:07:04.160Z,96757.14
2018-05-31T10:09:30.062Z,96754.27
2018-05-31T10:11:56.009Z,96752.04
2018-05-31T10:14:21.873Z,96753.58
2018-05-31T10:16:47.749Z,96748.83
2018-05-31T10:19:13.590Z,96745.70
2018-05-31T10:21:39.434Z,96746.98
2018-05-31T10:24:05.266Z,96745.03
2018-05-31T10:26:31.118Z,96746.93
2018-05-31T10:28:57.002Z,96743.09
2018-05-31T10:31:22.874Z,96750.34
2018-05-31T10:33:48.744Z,96746.17
2018-05-31T10:36:14.591Z,96744.95
2018-05-31T10:38:40.505Z,96742.47
2018-05-31T10:41:06.377Z,96733.94
2018-05-31T10:43:32.233Z,96740.05
2018-05-31T10:45:58.121Z,96735.91
2018-05-31T10:48:23.977Z,96735.64
2018-05-31T10:50:49.863Z,96732.11
2018-05-31T10:53:15.744Z,96734.08
2018-05-31T10:55:41.626Z,96729.14
2018-05-31T10:58:07.484Z,96719.95
2018-05-31T11:00:33.401Z,96714.34
2018-05-31T11:02:59.272Z,96717.58
2018-05-31T11:05:25.158Z,96704.47
2018-05-31T11:07:51.028Z,96709.32
2018-05-31T11:10:16.908Z,96706.27
2018-05-31T11:12:42.746Z,96702.81
2018-05-31T11:15:08.600Z,96704.61
2018-05-31T11:17:34.505Z,96703.67
2018-05-31T11:20:00.355Z,96697.61
2018-05-31T11:22:26.218Z,96698.77
2018-05-31T11:24:52.079Z,96692.84
2018-05-31T11:27:17.967Z,96692.91
2018-05-31T11:29:43.830Z,96685.25
2018-05-31T11:32:09.667Z,96680.62
2018-05-31T11:34:35.557Z,96680.74
2018-05-31T11:37:01.430Z,96679.86
2018-05-31T11:39:27.319Z,96677.34
2018-05-31T11:41:53.977Z,96684.41
2018-05-31T11:44:19.838Z,96679.83
2018-05-31T11:46:45.693Z,96675.64
2018-05-31T11:49:11.607Z,96667.75
2018-05-31T11:51:37.475Z,96660.34
2018-05-31T11:54:03.370Z,96655.98
2018-05-31T11:56:29.317Z,96659.29
2018-05-31T12:01:50.069Z,96654.13
2018-05-31T12:04:15.993Z,96646.89
2018-05-31T12:06:41.900Z,96648.07
2018-05-31T12:09:07.799Z,96651.58
2018-05-31T12:11:33.734Z,96643.75
2018-05-31T12:13:59.673Z,96641.98
2018-05-31T12:16:25.594Z,96639.52
2018-05-31T12:18:51.509Z,96637.85
2018-05-31T12:21:17.373Z,96638.80
2018-05-31T12:23:43.262Z,96636.09
2018-05-31T12:26:09.152Z,96641.23
2018-05-31T12:28:35.018Z,96635.94
2018-05-31T12:31:00.898Z,96639.09
2018-05-31T12:33:26.802Z,96636.98
2018-05-31T12:35:52.696Z,96626.38
2018-05-31T12:38:18.622Z,96624.87
2018-05-31T12:40:44.642Z,96629.88
2018-05-31T12:43:10.533Z,96624.47
2018-05-31T12:45:36.443Z,96621.33
2018-05-31T12:48:02.358Z,96623.66
2018-05-31T12:50:28.255Z,96616.14
2018-05-31T12:52:54.172Z,96620.16
2018-05-31T12:55:20.065Z,96613.33
2018-05-31T12:57:45.960Z,96617.91
2018-05-31T13:00:14.433Z,96618.88
2018-05-31T13:02:40.311Z,96618.59
2018-05-31T13:05:06.161Z,96607.89
2018-05-31T13:07:32.110Z,96612.85
2018-05-31T13:09:57.977Z,96605.58
2018-05-31T13:12:23.875Z,96609.91
2018-05-31T13:14:50.966Z,96610.53
2018-05-31T13:17:19.951Z,96604.89
2018-05-31T13:19:47.562Z,96598.44
2018-05-31T13:22:16.008Z,96590.96
2018-05-31T13:24:43.086Z,96605.55
2018-05-31T13:27:14.764Z,96597.30
2018-05-31T13:29:42.771Z,96596.77
2018-05-31T13:32:10.303Z,96598.12
2018-05-31T13:34:43.294Z,96593.68
2018-05-31T13:37:11.556Z,96595.41
2018-05-31T13:39:37.540Z,96586.80
2018-05-31T13:42:03.424Z,96585.87
2018-05-31T13:44:31.280Z,96564.28
2018-05-31T13:46:57.282Z,96579.19
2018-05-31T13:49:23.189Z,96574.11
2018-05-31T13:51:49.086Z,96569.36
2018-05-31T13:54:15.008Z,96569.56
2018-05-31T13:56:40.957Z,96568.25
2018-05-31T13:59:06.889Z,96567.00
2018-05-31T14:01:32.803Z,96559.44
2018-05-31T14:03:58.797Z,96557.30
2018-05-31T14:06:24.714Z,96548.19
2018-05-31T14:08:50.613Z,96546.71
2018-05-31T14:11:16.644Z,96544.55
2018-05-31T14:13:42.533Z,96545.53
2018-05-31T14:16:08.406Z,96539.14
2018-05-31T14:18:34.409Z,96544.44
2018-05-31T14:21:00.281Z,96544.67
2018-05-31T14:23:26.181Z,96541.18
2018-05-31T14:25:52.053Z,96537.81
2018-05-31T14:28:17.929Z,96540.23
2018-05-31T14:30:43.805Z,96536.33
2018-05-31T14:33:09.709Z,96530.91
2018-05-31T14:35:35.599Z,96536.84
2018-05-31T14:38:01.546Z,96535.66
2018-05-31T14:40:27.433Z,96538.03
2018-05-31T14:42:53.290Z,96546.23
2018-05-31T14:45:19.238Z,96551.53
2018-05-31T14:47:45.129Z,96533.13
2018-05-31T14:50:10.995Z,96532.22
2018-05-31T14:52:36.837Z,96531.35
2018-05-31T14:55:02.702Z,96534.72
2018-05-31T14:57:28.540Z,96534.31
2018-05-31T14:59:54.461Z,96541.20
2018-05-31T15:02:20.345Z,96556.05
2018-05-31T15:04:46.242Z,96579.30
2018-05-31T15:07:12.142Z,96549.23
2018-05-31T15:09:38.021Z,96558.30
2018-05-31T15:12:03.938Z,96560.14
2018-05-31T15:14:29.881Z,96552.95
2018-05-31T15:16:55.765Z,96567.30
2018-05-31T15:19:21.647Z,96596.33
2018-05-31T15:21:47.528Z,96599.40
2018-05-31T15:24:13.409Z,96619.53
2018-05-31T15:26:39.334Z,96621.66
2018-05-31T15:29:05.217Z,96644.33
2018-05-31T15:31:31.130Z,96645.55
2018-05-31T15:33:57.059Z,96653.36
2018-05-31T15:36:22.954Z,96653.86
2018-05-31T15:38:48.841Z,96664.22
2018-05-31T15:41:14.748Z,96668.88
2018-05-31T15:43:40.632Z,96658.33
2018-05-31T15:46:06.520Z,96672.11
2018-05-31T15:48:32.407Z,96676.20
2018-05-31T15:50:58.292Z,96618.34
2018-05-31T15:53:24.208Z,96597.93
2018-05-31T15:55:50.119Z,96595.55
2018-05-31T15:58:16.023Z,96600.11
2018-05-31T16:00:41.948Z,96610.84
2018-05-31T16:03:07.813Z,96625.96
2018-05-31T16:05:33.706Z,96628.38
2018-05-31T16:07:59.580Z,96628.48
2018-05-31T16:10:25.491Z,96636.41
2018-05-31T16:12:51.451Z,96610.27
2018-05-31T16:15:17.332Z,96572.28
2018-05-31T16:17:43.235Z,96587.81
2018-05-31T16:20:09.137Z,96597.36
2018-05-31T16:22:35.040Z,96629.05
2018-05-31T16:25:00.920Z,96655.77
2018-05-31T16:27:26.811Z,96669.42
2018-05-31T16:29:52.720Z,96674.70
2018-05-31T16:32:18.619Z,96673.05
2018-05-31T16:34:44.562Z,96687.27
2018-05-31T16:37:10.441Z,96708.38
2018-05-31T16:39:36.350Z,96709.74
2018-05-31T16:42:02.275Z,96707.64
2018-05-31T16:44:28.188Z,96699.33
2018-05-31T16:46:54.104Z,96698.55
2018-05-31T16:49:20.036Z,96692.00
2018-05-31T16:51:46.004Z,96686.98
2018-05-31T16:54:11.870Z,96682.20
2018-05-31T16:56:37.735Z,96678.77
2018-05-31T16:59:03.609Z,96669.95
2018-05-31T17:01:29.460Z,96665.59
2018-05-31T17:03:55.337Z,96652.30
2018-05-31T17:06:21.245Z,96642.55
2018-05-31T17:08:47.119Z,96641.77
2018-05-31T17:11:13.040Z,96636.58
2018-05-31T17:13:38.874Z,96633.89
2018-05-31T17:16:04.746Z,96619.27
2018-05-31T17:18:30.621Z,96616.15
2018-05-31T17:20:56.546Z,96612.99
2018-05-31T17:23:22.386Z,96614.81
2018-05-31T17:25:48.234Z,96615.61
2018-05-31T17:28:14.105Z,96631.03
2018-05-31T17:30:39.981Z,96642.09
2018-05-31T17:33:05.872Z,96653.45
2018-05-31T17:35:31.726Z,96673.84
2018-05-31T17:37:57.580Z,96670.36
2018-05-31T17:40:23.409Z,96695.33
2018-05-31T17:42:49.281Z,96707.05
2018-05-31T17:45:15.153Z,96717.62
2018-05-31T17:47:41.011Z,96722.78
2018-05-31T17:50:07.069Z,96727.77
2018-05-31T17:52:32.924Z,96731.97
2018-05-31T17:54:58.776Z,96736.27
2018-05-31T17:57:24.621Z,96740.30
2018-05-31T17:59:50.492Z,96732.96
2018-05-31T18:02:16.365Z,96744.17
2018-05-31T18:04:42.250Z,96744.91
2018-05-31T18:07:08.077Z,96743.84
2018-05-31T18:09:33.925Z,96746.54
2018-05-31T18:11:59.797Z,96744.76
2018-05-31T18:14:25.642Z,96762.75
2018-05-31T18:16:51.480Z,96766.47
2018-05-31T18:19:17.378Z,96768.16
2018-05-31T18:21:43.250Z,96771.18
2018-05-31T18:24:09.118Z,96774.53
2018-05-31T18:26:34.985Z,96780.72
2018-05-31T18:29:00.868Z,96788.07
2018-05-31T18:31:26.833Z,96785.81
2018-05-31T18:33:52.733Z,96787.30
2018-05-31T18:36:18.618Z,96779.90
2018-05-31T18:38:44.506Z,96784.81
2018-05-31T18:41:10.374Z,96785.09
2018-05-31T18:43:36.267Z,96789.79
2018-05-31T18:46:02.122Z,96782.70
2018-05-31T18:48:28.011Z,96778.16
2018-05-31T18:50:53.976Z,96772.55
2018-05-31T18:53:19.833Z,96765.70
2018-05-31T18:55:45.720Z,96761.44
2018-05-31T18:58:11.632Z,96769.91
2018-05-31T19:00:37.515Z,96766.14
2018-05-31T19:03:03.428Z,96768.91
2018-05-31T19:05:29.323Z,96772.46
2018-05-31T19:07:55.199Z,96773.77
2018-05-31T19:10:21.084Z,96767.88
2018-05-31T19:12:53.006Z,96785.05
2018-05-31T19:15:21.766Z,96791.19
2018-05-31T19:17:44.816Z,96782.94
2018-05-31T19:20:10.763Z,96775.39
2018-05-31T19:22:36.654Z,96787.50
2018-05-31T19:25:08.606Z,96782.44
2018-05-31T19:27:34.453Z,96782.63
2018-05-31T19:30:06.505Z,96777.54
2018-05-31T19:32:32.427Z,96789.42
2018-05-31T19:34:58.256Z,96795.30
2018-05-31T19:37:24.133Z,96795.09
2018-05-31T19:39:50.022Z,96792.13
2018-05-31T19:42:22.118Z,96779.14
2018-05-31T19:44:47.969Z,96781.34
2018-05-31T19:47:13.853Z,96776.84
2018-05-31T19:49:39.717Z,96766.00
2018-05-31T19:52:11.568Z,96754.75
2018-05-31T19:54:37.465Z,96764.28
2018-05-31T19:57:03.383Z,96780.95
2018-05-31T19:59:35.420Z,96780.83
2018-05-31T20:02:07.496Z,96792.95
2018-05-31T20:04:33.350Z,96796.20
2018-05-31T20:06:59.323Z,96803.81
2018-05-31T20:09:25.169Z,96790.11
2018-05-31T20:11:51.044Z,96789.59
2018-05-31T20:14:16.926Z,96790.03
2018-05-31T20:16:42.795Z,96785.88
2018-05-31T20:19:08.689Z,96779.77
2018-05-31T20:21:34.632Z,96777.32
2018-05-31T20:24:00.561Z,96780.02
2018-05-31T20:26:26.463Z,96775.30
2018-05-31T20:28:52.316Z,96773.12
2018-05-31T20:31:18.218Z,96776.25
2018-05-31T20:33:44.100Z,96774.50
2018-05-31T20:36:09.946Z,96784.67
2018-05-31T20:38:35.841Z,96783.91
2018-05-31T20:41:01.748Z,96788.66
2018-05-31T20:43:27.685Z,96792.73
2018-05-31T20:45:53.588Z,96792.55
2018-05-31T20:48:19.484Z,96780.46
2018-05-31T20:50:45.350Z,96776.82
2018-05-31T20:53:11.200Z,96782.93
2018-05-31T20:55:37.071Z,96773.72
2018-05-31T20:58:02.932Z,96773.72
2018-05-31T21:00:28.810Z,96769.56
2018-05-31T21:02:54.641Z,96783.87
2018-05-31T21:05:20.519Z,96799.30
2018-05-31T21:07:46.427Z,96802.27
2018-05-31T21:10:12.308Z,96799.99
2018-05-31T21:12:38.217Z,96811.92
2018-05-31T21:15:04.112Z,96821.01
2018-05-31T21:17:30.052Z,96816.64
2018-05-31T21:19:55.944Z,96818.66
2018-05-31T21:22:21.776Z,96826.21
2018-05-31T21:24:47.657Z,96823.55
2018-05-31T21:27:13.526Z,96829.16
2018-05-31T21:29:39.381Z,96820.33
2018-05-31T21:32:05.232Z,96833.19
2018-05-31T21:34:31.112Z,96822.94
2018-05-31T21:36:56.968Z,96818.91
2018-05-31T21:39:22.926Z,96813.74
2018-05-31T21:41:48.808Z,96811.09
2018-05-31T21:44:14.657Z,96806.28
2018-05-31T21:46:40.517Z,96796.91
2018-05-31T21:49:06.383Z,96788.71
2018-05-31T21:51:32.280Z,96786.27
2018-05-31T21:53:58.154Z,96780.72
2018-05-31T21:56:24.012Z,96787.63
2018-05-31T21:58:49.866Z,96775.75
2018-05-31T22:01:15.714Z,96774.09
2018-05-31T22:03:41.568Z,96772.61
2018-05-31T22:06:07.440Z,96772.68
2018-05-31T22:08:33.308Z,96769.86
2018-05-31T22:10:59.190Z,96768.13
2018-05-31T22:13:25.059Z,96774.13
2018-05-31T22:15:50.920Z,96776.06
2018-05-31T22:18:16.888Z,96774.99
2018-05-31T22:20:42.741Z,96775.17
2018-05-31T22:23:08.610Z,96768.63
2018-05-31T22:25:34.468Z,96767.56
2018-05-31T22:28:00.329Z,96767.19
2018-05-31T22:30:26.208Z,96771.16
2018-05-31T22:32:52.101Z,96774.36
2018-05-31T22:35:17.992Z,96769.37
2018-05-31T22:37:43.829Z,96760.80
2018-05-31T22:40:09.677Z,96760.19
2018-05-31T22:42:35.588Z,96763.88
2018-05-31T22:45:01.442Z,96757.47
2018-05-31T22:47:27.294Z,96757.95
2018-05-31T22:49:53.137Z,96759.20
2018-05-31T22:52:19.010Z,96749.95
2018-05-31T22:54:44.890Z,96753.28
2018-05-31T22:57:10.741Z,96748.97
2018-05-31T22:59:36.592Z,96738.94
2018-05-31T23:02:02.469Z,96719.72
2018-05-31T23:04:28.330Z,96715.89
2018-05-31T23:06:54.200Z,96718.88
2018-05-31T23:09:20.092Z,96711.73
2018-05-31T23:11:45.988Z,96699.93
2018-05-31T23:14:11.839Z,96698.78
2018-05-31T23:16:37.780Z,96695.34
2018-05-31T23:19:03.681Z,96692.78
2018-05-31T23:21:29.556Z,96674.64
2018-05-31T23:23:55.410Z,96685.59
2018-05-31T23:26:21.265Z,96692.02
2018-05-31T23:28:47.125Z,96694.18
2018-05-31T23:31:12.952Z,96694.02
2018-05-31T23:33:38.773Z,96685.92
2018-05-31T23:36:04.667Z,96678.64
2018-05-31T23:38:30.504Z,96680.89
2018-05-31T23:40:56.330Z,96679.23
2018-05-31T23:43:22.150Z,96676.10
2018-05-31T23:45:47.964Z,96685.34
2018-05-31T23:48:13.837Z,96682.33
2018-05-31T23:50:39.674Z,96679.18
2018-05-31T23:53:05.545Z,96682.23
2018-05-31T23:55:31.408Z,96680.32
2018-05-31T23:57:57.271Z,96677.84
